Time;durP1;ratioP1;P1;durP2;ratioP2;P2;SDS_P1;SDS_P2;PMS_P1;PMS_P2;Temp;Humidity;BMP_temperature;BMP_pressure;BME280_temperature;BME280_humidity;BME280_pressure;Samples;Min_cycle;Max_cycle;Signal;HPM_P1;HPM_P2
2023/10/18 00:01:01;;;;;;;;;;;11.10;80.20;;;;;;4931164;29;20022;-74
2023/10/18 00:03:31;;;;;;;;;;;11.10;80.20;;;;;;4930588;29;21387;-74
2023/10/18 00:05:57;;;;;;;;;;;11.10;80.30;;;;;;4931240;29;20017;-74
2023/10/18 00:08:23;;;;;;;;;;;11.10;80.30;;;;;;4929901;29;19958;-74
2023/10/18 00:10:53;;;;;;;;;;;11.10;80.30;;;;;;4931092;29;20379;-74
2023/10/18 00:13:25;;;;;;;;;;;11.20;80.30;;;;;;4931159;29;19939;-74
2023/10/18 00:15:53;;;;;;;;;;;11.20;80.30;;;;;;4931408;29;19969;-74
2023/10/18 00:18:19;;;;;;;;;;;11.20;80.30;;;;;;4931050;29;19922;-74
2023/10/18 00:20:45;;;;;;;;;;;11.20;80.30;;;;;;4930985;29;19915;-74
2023/10/18 00:23:11;;;;;;;;;;;11.20;80.30;;;;;;4930288;29;19921;-74
2023/10/18 00:25:36;;;;;;;;;;;11.20;80.30;;;;;;4930833;29;19915;-74
2023/10/18 00:28:03;;;;;;;;;;;11.20;80.30;;;;;;4930896;29;19946;-74
2023/10/18 00:30:30;;;;;;;;;;;11.20;80.50;;;;;;4930876;29;19922;-74
2023/10/18 00:32:56;;;;;;;;;;;11.30;80.40;;;;;;4931346;29;20009;-74
2023/10/18 00:35:39;;;;;;;;;;;11.30;80.30;;;;;;4930943;29;20375;-74
2023/10/18 00:38:08;;;;;;;;;;;11.30;80.30;;;;;;4930747;29;19915;-74
2023/10/18 00:40:33;;;;;;;;;;;11.40;80.30;;;;;;4931191;29;19919;-74
2023/10/18 00:43:04;;;;;;;;;;;11.40;80.30;;;;;;4930707;29;19925;-74
2023/10/18 00:45:31;;;;;;;;;;;11.40;80.30;;;;;;4931125;29;19911;-74
2023/10/18 00:47:57;;;;;;;;;;;11.40;80.30;;;;;;4930751;29;20295;-74
2023/10/18 00:50:27;;;;;;;;;;;11.50;80.30;;;;;;4930707;29;20143;-74
2023/10/18 00:52:53;;;;;;;;;;;11.50;80.40;;;;;;4930721;29;19922;-74
2023/10/18 00:55:19;;;;;;;;;;;11.50;80.40;;;;;;4930622;29;19919;-74
2023/10/18 00:57:45;;;;;;;;;;;11.60;80.40;;;;;;4930503;29;20320;-74
2023/10/18 01:00:13;;;;;;;;;;;11.60;80.40;;;;;;4930498;29;19962;-74
2023/10/18 01:02:42;;;;;;;;;;;11.60;80.40;;;;;;4930661;29;19923;-74
2023/10/18 01:05:11;;;;;;;;;;;11.60;80.40;;;;;;4930610;29;19918;-74
2023/10/18 01:07:37;;;;;;;;;;;11.70;80.40;;;;;;4930488;29;19961;-74
2023/10/18 01:10:07;;;;;;;;;;;11.70;80.30;;;;;;4930543;29;19954;-74
2023/10/18 01:12:36;;;;;;;;;;;11.70;80.30;;;;;;4930483;29;19922;-74
2023/10/18 01:15:06;;;;;;;;;;;11.80;80.40;;;;;;4930318;29;19925;-74
2023/10/18 01:17:34;;;;;;;;;;;11.80;80.40;;;;;;4930509;29;19915;-74
2023/10/18 01:20:00;;;;;;;;;;;11.80;80.40;;;;;;4930435;29;20001;-74
2023/10/18 01:22:25;;;;;;;;;;;11.80;80.40;;;;;;4930357;29;20356;-74
2023/10/18 01:24:51;;;;;;;;;;;11.80;80.40;;;;;;4930339;29;19947;-74
2023/10/18 01:27:17;;;;;;;;;;;11.90;80.40;;;;;;4930435;29;19915;-74
2023/10/18 01:29:43;;;;;;;;;;;11.90;80.40;;;;;;4930502;29;20376;-74
2023/10/18 01:32:09;;;;;;;;;;;11.90;80.40;;;;;;4930391;29;20423;-74
2023/10/18 01:34:36;;;;;;;;;;;11.90;80.40;;;;;;4930897;29;20013;-74
2023/10/18 01:37:02;;;;;;;;;;;11.90;80.40;;;;;;4933894;29;19915;-74
2023/10/18 01:39:31;;;;;;;;;;;12.00;80.40;;;;;;4933855;29;19922;-74
2023/10/18 01:42:00;;;;;;;;;;;12.00;80.40;;;;;;4933837;29;19914;-74
2023/10/18 01:44:30;;;;;;;;;;;12.00;80.40;;;;;;4933910;29;19950;-74
2023/10/18 01:46:56;;;;;;;;;;;12.00;80.40;;;;;;4933768;29;19972;-74
2023/10/18 01:49:25;;;;;;;;;;;12.00;80.40;;;;;;4933585;29;19914;-74
2023/10/18 01:51:52;;;;;;;;;;;12.00;80.40;;;;;;4932267;29;19939;-74
2023/10/18 01:54:18;;;;;;;;;;;12.00;80.40;;;;;;4933444;29;19911;-74
2023/10/18 01:56:46;;;;;;;;;;;12.10;80.50;;;;;;4933584;29;19919;-74
2023/10/18 01:59:17;;;;;;;;;;;12.10;80.50;;;;;;4933450;29;20256;-74
2023/10/18 02:01:52;;;;;;;;;;;12.10;80.40;;;;;;4933657;29;20379;-74
2023/10/18 02:04:25;;;;;;;;;;;12.10;80.40;;;;;;4932217;29;20399;-73
2023/10/18 02:06:51;;;;;;;;;;;12.20;80.50;;;;;;4933423;29;20400;-74
2023/10/18 02:09:17;;;;;;;;;;;12.20;80.60;;;;;;4933261;29;20447;-74
2023/10/18 02:11:43;;;;;;;;;;;12.20;80.50;;;;;;4933209;29;20373;-74
2023/10/18 02:14:10;;;;;;;;;;;12.20;80.40;;;;;;4933153;29;19914;-73
2023/10/18 02:16:35;;;;;;;;;;;12.20;80.50;;;;;;4933096;29;19922;-74
2023/10/18 02:19:01;;;;;;;;;;;12.30;80.60;;;;;;4931694;29;20389;-74
2023/10/18 02:21:27;;;;;;;;;;;12.30;80.50;;;;;;4933029;29;19915;-73
2023/10/18 02:23:53;;;;;;;;;;;12.30;80.50;;;;;;4931739;29;20385;-74
2023/10/18 02:26:30;;;;;;;;;;;12.30;80.50;;;;;;4933000;29;19921;-73
2023/10/18 02:29:00;;;;;;;;;;;12.40;80.60;;;;;;4932907;29;19921;-73
2023/10/18 02:31:28;;;;;;;;;;;12.40;80.60;;;;;;4932977;29;19911;-74
2023/10/18 02:33:55;;;;;;;;;;;12.40;80.60;;;;;;4931846;29;19921;-73
2023/10/18 02:36:32;;;;;;;;;;;12.40;80.60;;;;;;4932708;29;19918;-73
2023/10/18 02:38:58;;;;;;;;;;;12.40;80.60;;;;;;4932731;29;19911;-74
2023/10/18 02:41:29;;;;;;;;;;;12.40;80.60;;;;;;4932702;29;20314;-74
2023/10/18 02:43:57;;;;;;;;;;;12.40;80.60;;;;;;4932629;29;20008;-74
2023/10/18 02:46:23;;;;;;;;;;;12.40;80.70;;;;;;4931680;29;20399;-74
2023/10/18 02:48:52;;;;;;;;;;;12.50;80.70;;;;;;4932549;29;19915;-74
2023/10/18 02:51:24;;;;;;;;;;;12.50;80.70;;;;;;4932478;29;19915;-74
2023/10/18 02:53:54;;;;;;;;;;;12.50;80.70;;;;;;4932612;29;19911;-74
2023/10/18 02:56:33;;;;;;;;;;;12.50;80.70;;;;;;4932343;29;20372;-74
2023/10/18 02:59:06;;;;;;;;;;;12.50;80.70;;;;;;4932482;29;19915;-74
2023/10/18 03:01:42;;;;;;;;;;;12.50;80.80;;;;;;4932250;29;20426;-74
2023/10/18 03:04:09;;;;;;;;;;;12.60;80.80;;;;;;4932394;29;19912;-74
2023/10/18 03:06:35;;;;;;;;;;;12.50;80.70;;;;;;4932720;29;19915;-74
2023/10/18 03:09:03;;;;;;;;;;;12.50;80.60;;;;;;4932508;29;19911;-74
2023/10/18 03:11:31;;;;;;;;;;;12.40;80.50;;;;;;4932257;29;19915;-73
2023/10/18 03:13:57;;;;;;;;;;;12.20;80.40;;;;;;4932133;29;19986;-73
2023/10/18 03:18:59;;;;;;;;;;;12.00;80.70;;;;;;4932103;29;19916;-74
2023/10/18 03:21:26;;;;;;;;;;;11.90;80.90;;;;;;4932016;29;19911;-75
2023/10/18 03:23:51;;;;;;;;;;;11.90;80.90;;;;;;4931951;29;20371;-75
2023/10/18 03:26:22;;;;;;;;;;;11.80;80.90;;;;;;4931979;29;19918;-75
2023/10/18 03:28:50;;;;;;;;;;;11.80;81.00;;;;;;4931834;29;19958;-75
2023/10/18 03:31:29;;;;;;;;;;;11.70;81.00;;;;;;4931791;29;20388;-75
2023/10/18 03:34:08;;;;;;;;;;;11.70;81.10;;;;;;4931815;29;19965;-74
2023/10/18 03:36:35;;;;;;;;;;;11.60;81.10;;;;;;4931819;29;20300;-75
2023/10/18 03:39:07;;;;;;;;;;;11.60;81.10;;;;;;4931620;29;19921;-75
2023/10/18 03:41:40;;;;;;;;;;;11.60;81.10;;;;;;4931739;29;20010;-75
2023/10/18 03:44:09;;;;;;;;;;;11.60;81.10;;;;;;4931700;29;19911;-75
2023/10/18 03:49:16;;;;;;;;;;;11.60;81.10;;;;;;4931444;29;19942;-74
2023/10/18 03:51:42;;;;;;;;;;;11.60;81.10;;;;;;4931364;29;20106;-74
2023/10/18 03:54:14;;;;;;;;;;;11.60;81.10;;;;;;4931241;29;20467;-75
2023/10/18 03:56:42;;;;;;;;;;;11.60;81.10;;;;;;4930249;29;19945;-75
2023/10/18 03:59:24;;;;;;;;;;;11.60;81.10;;;;;;4931055;29;19922;-75
2023/10/18 04:02:16;;;;;;;;;;;11.60;81.10;;;;;;4931219;29;19923;-74
2023/10/18 04:04:57;;;;;;;;;;;11.60;81.10;;;;;;4931338;29;20283;-74
2023/10/18 04:07:24;;;;;;;;;;;11.70;81.10;;;;;;4931046;29;19915;-74
2023/10/18 04:12:26;;;;;;;;;;;11.70;81.20;;;;;;4931150;29;19918;-75
2023/10/18 04:15:09;;;;;;;;;;;11.70;81.20;;;;;;4930947;29;19919;-74
2023/10/18 04:20:01;;;;;;;;;;;11.80;81.10;;;;;;4930985;29;19938;-74
2023/10/18 04:22:28;;;;;;;;;;;11.80;81.10;;;;;;4930837;29;20006;-75
2023/10/18 04:24:54;;;;;;;;;;;11.90;81.10;;;;;;4931047;29;19915;-74
2023/10/18 04:27:20;;;;;;;;;;;11.90;81.10;;;;;;4929652;29;19925;-75
2023/10/18 04:29:47;;;;;;;;;;;11.90;81.10;;;;;;4930728;29;19918;-75
2023/10/18 04:32:17;;;;;;;;;;;12.00;81.10;;;;;;4930856;29;19954;-75
2023/10/18 04:34:44;;;;;;;;;;;12.00;81.00;;;;;;4931270;29;20343;-74
2023/10/18 04:37:12;;;;;;;;;;;12.00;81.00;;;;;;4930797;29;19967;-74
2023/10/18 04:39:38;;;;;;;;;;;12.00;81.00;;;;;;4930898;29;19914;-74
2023/10/18 04:42:07;;;;;;;;;;;12.00;81.00;;;;;;4930762;29;19915;-74
2023/10/18 04:44:36;;;;;;;;;;;12.10;81.00;;;;;;4930595;29;20306;-74
2023/10/18 04:47:14;;;;;;;;;;;12.10;80.90;;;;;;4930669;29;20005;-74
2023/10/18 04:49:50;;;;;;;;;;;12.20;80.90;;;;;;4930567;29;19923;-74
2023/10/18 04:52:28;;;;;;;;;;;12.20;80.90;;;;;;4930492;29;19919;-74
2023/10/18 04:55:00;;;;;;;;;;;12.20;80.80;;;;;;4930450;29;19927;-74
2023/10/18 04:57:26;;;;;;;;;;;12.20;80.90;;;;;;4930349;29;19915;-74
2023/10/18 04:59:59;;;;;;;;;;;12.20;80.90;;;;;;4930626;29;19921;-75
2023/10/18 05:02:29;;;;;;;;;;;12.30;80.90;;;;;;4930460;29;19984;-74
2023/10/18 05:04:57;;;;;;;;;;;12.30;80.90;;;;;;4929119;29;19921;-74
2023/10/18 05:07:40;;;;;;;;;;;12.30;80.90;;;;;;4930579;29;20331;-74
2023/10/18 05:10:14;;;;;;;;;;;12.30;80.90;;;;;;4931792;29;19911;-74
2023/10/18 05:12:52;;;;;;;;;;;12.30;80.90;;;;;;4932938;29;20330;-74
2023/10/18 05:15:42;;;;;;;;;;;12.30;80.90;;;;;;4934238;29;19914;-68
2023/10/18 05:18:15;;;;;;;;;;;12.30;80.90;;;;;;4933567;29;20010;-74
2023/10/18 05:20:46;;;;;;;;;;;12.40;80.90;;;;;;4932678;29;19922;-74
2023/10/18 05:23:21;;;;;;;;;;;12.40;80.90;;;;;;4933995;29;19927;-74
2023/10/18 05:25:47;;;;;;;;;;;12.50;80.90;;;;;;4933904;29;19911;-74
2023/10/18 05:28:15;;;;;;;;;;;12.50;80.90;;;;;;4933649;29;19926;-74
2023/10/18 05:41:34;;;;;;;;;;;12.50;80.90;;;;;;4933598;29;19956;-74
2023/10/18 05:44:00;;;;;;;;;;;12.50;81.00;;;;;;4933791;29;20383;-75
2023/10/18 05:46:31;;;;;;;;;;;12.50;81.00;;;;;;4932238;29;19911;-74
2023/10/18 05:49:00;;;;;;;;;;;12.50;81.10;;;;;;4933409;29;19911;-74
2023/10/18 05:53:58;;;;;;;;;;;12.40;81.20;;;;;;4933428;29;20356;-74
2023/10/18 05:56:31;;;;;;;;;;;12.50;81.20;;;;;;4933267;29;19919;-74
2023/10/18 06:01:44;;;;;;;;;;;12.50;81.20;;;;;;4933515;29;20314;-75
2023/10/18 06:04:12;;;;;;;;;;;12.60;81.30;;;;;;4932944;29;19914;-74
2023/10/18 06:06:37;;;;;;;;;;;12.60;81.30;;;;;;4933162;29;19915;-74
2023/10/18 06:09:10;;;;;;;;;;;12.50;81.30;;;;;;4932703;29;19925;-75
2023/10/18 06:11:36;;;;;;;;;;;12.50;81.30;;;;;;4933019;29;20323;-75
2023/10/18 06:14:05;;;;;;;;;;;12.50;81.40;;;;;;4932947;29;20360;-74
2023/10/18 06:16:36;;;;;;;;;;;12.60;81.50;;;;;;4932901;29;19958;-75
2023/10/18 06:19:03;;;;;;;;;;;12.60;81.40;;;;;;4932869;29;19946;-74
2023/10/18 06:21:35;;;;;;;;;;;12.60;81.50;;;;;;4932901;29;19966;-74
2023/10/18 06:24:08;;;;;;;;;;;12.70;81.50;;;;;;4932722;29;19923;-74
2023/10/18 06:26:34;;;;;;;;;;;12.70;81.40;;;;;;4932950;29;19915;-75
2023/10/18 06:29:01;;;;;;;;;;;12.70;81.50;;;;;;4932565;29;19967;-75
2023/10/18 06:31:28;;;;;;;;;;;12.70;81.60;;;;;;4931971;29;20340;-74
2023/10/18 06:33:56;;;;;;;;;;;12.70;81.50;;;;;;4931153;29;19958;-72
2023/10/18 06:36:24;;;;;;;;;;;12.70;81.60;;;;;;4931939;29;20013;-74
2023/10/18 06:38:50;;;;;;;;;;;12.70;81.60;;;;;;4931532;29;19915;-74
2023/10/18 06:41:19;;;;;;;;;;;12.70;81.60;;;;;;4929931;29;19978;-74
2023/10/18 06:43:45;;;;;;;;;;;12.70;81.60;;;;;;4929990;29;20371;-75
2023/10/18 06:46:26;;;;;;;;;;;12.70;81.60;;;;;;4932185;29;19915;-75
2023/10/18 06:48:59;;;;;;;;;;;12.80;81.60;;;;;;4931779;29;19954;-75
2023/10/18 06:51:31;;;;;;;;;;;12.70;81.50;;;;;;4931838;29;20066;-76
2023/10/18 06:53:59;;;;;;;;;;;12.80;81.50;;;;;;4931673;29;19927;-75
2023/10/18 06:56:26;;;;;;;;;;;12.80;81.50;;;;;;4931378;29;19915;-75
2023/10/18 06:58:53;;;;;;;;;;;12.80;81.50;;;;;;4931297;29;19915;-75
2023/10/18 07:01:26;;;;;;;;;;;12.80;81.50;;;;;;4930925;29;19973;-75
2023/10/18 07:03:51;;;;;;;;;;;12.90;81.50;;;;;;4931094;29;20062;-75
2023/10/18 07:06:24;;;;;;;;;;;12.90;81.40;;;;;;4930760;29;20013;-75
2023/10/18 07:08:50;;;;;;;;;;;13.00;81.50;;;;;;4931237;29;20324;-75
2023/10/18 07:11:19;;;;;;;;;;;13.00;81.40;;;;;;4931188;29;19920;-74
2023/10/18 07:13:48;;;;;;;;;;;13.10;81.40;;;;;;4930789;29;20025;-64
2023/10/18 07:16:16;;;;;;;;;;;13.10;81.40;;;;;;4930765;29;20001;-74
2023/10/18 07:18:44;;;;;;;;;;;13.10;81.40;;;;;;4930929;29;19911;-74
2023/10/18 07:21:11;;;;;;;;;;;13.10;81.40;;;;;;4930893;29;20407;-75
2023/10/18 07:23:37;;;;;;;;;;;13.10;81.40;;;;;;4931142;29;19958;-68
2023/10/18 07:26:16;;;;;;;;;;;13.20;81.40;;;;;;4929570;29;20386;-74
2023/10/18 07:28:43;;;;;;;;;;;13.20;81.50;;;;;;4931116;29;19910;-75
2023/10/18 07:31:10;;;;;;;;;;;13.20;81.50;;;;;;4931291;29;20001;-75
2023/10/18 07:33:41;;;;;;;;;;;13.30;81.50;;;;;;4930355;29;20456;-75
2023/10/18 07:36:08;;;;;;;;;;;13.30;81.50;;;;;;4929068;29;19919;-74
2023/10/18 07:38:37;;;;;;;;;;;13.40;81.50;;;;;;4930525;29;19914;-75
2023/10/18 07:41:04;;;;;;;;;;;13.30;81.50;;;;;;4930474;29;19926;-75
2023/10/18 07:43:32;;;;;;;;;;;13.40;81.50;;;;;;4930785;29;19954;-74
2023/10/18 07:45:58;;;;;;;;;;;13.40;81.50;;;;;;4930696;29;20228;-75
2023/10/18 07:48:24;;;;;;;;;;;13.40;81.50;;;;;;4930355;29;19911;-63
2023/10/18 07:50:50;;;;;;;;;;;13.40;81.50;;;;;;4931009;29;19915;-72
2023/10/18 07:53:16;;;;;;;;;;;13.40;81.50;;;;;;4928970;29;19956;-75
2023/10/18 07:55:42;;;;;;;;;;;13.40;81.50;;;;;;4930477;29;20299;-74
2023/10/18 07:58:26;;;;;;;;;;;13.50;81.60;;;;;;4929525;29;19923;-75
2023/10/18 08:03:27;;;;;;;;;;;13.50;81.50;;;;;;4930222;29;19975;-76
2023/10/18 08:05:55;;;;;;;;;;;13.60;81.60;;;;;;4930004;29;19991;-77
2023/10/18 08:08:24;;;;;;;;;;;13.60;81.60;;;;;;4930251;29;20014;-77
2023/10/18 08:10:50;;;;;;;;;;;13.60;81.60;;;;;;4928748;29;20015;-74
2023/10/18 08:13:16;;;;;;;;;;;13.60;81.60;;;;;;4929850;29;20029;-75
2023/10/18 08:16:27;;;;;;;;;;;13.60;81.60;;;;;;4935937;29;19973;-69
2023/10/18 08:18:43;;;;;;;;;;;13.60;81.60;;;;;;4943684;28;19925;-74
2023/10/18 08:23:55;;;;;;;;;;;13.70;81.60;;;;;;4926361;29;19921;-73
2023/10/18 08:26:21;;;;;;;;;;;13.70;81.60;;;;;;4929937;29;20381;-75
2023/10/18 08:28:47;;;;;;;;;;;13.70;81.60;;;;;;4929833;29;19915;-74
2023/10/18 08:31:26;;;;;;;;;;;13.70;81.60;;;;;;4929858;29;20314;-74
2023/10/18 08:33:55;;;;;;;;;;;13.80;81.60;;;;;;4928728;29;19911;-74
2023/10/18 08:36:29;;;;;;;;;;;13.80;81.60;;;;;;4928965;29;20308;-74
2023/10/18 08:38:56;;;;;;;;;;;13.80;81.70;;;;;;4929142;29;20411;-78
2023/10/18 08:41:25;;;;;;;;;;;13.80;81.70;;;;;;4926853;29;19997;-77
2023/10/18 08:43:57;;;;;;;;;;;13.80;81.60;;;;;;4929133;29;19957;-73
2023/10/18 08:46:24;;;;;;;;;;;13.90;81.70;;;;;;4928936;29;19919;-78
2023/10/18 08:48:51;;;;;;;;;;;13.90;81.70;;;;;;4923642;29;19950;-78
2023/10/18 08:51:18;;;;;;;;;;;13.90;81.70;;;;;;4930963;29;20304;-77
2023/10/18 08:53:43;;;;;;;;;;;13.90;81.70;;;;;;4931561;29;19929;-77
2023/10/18 08:56:09;;;;;;;;;;;13.90;81.70;;;;;;4930926;29;19923;-77
2023/10/18 08:58:36;;;;;;;;;;;14.00;81.70;;;;;;4929889;29;19915;-77
2023/10/18 09:01:03;;;;;;;;;;;14.00;81.70;;;;;;4927763;29;19978;-77
2023/10/18 09:03:29;;;;;;;;;;;14.00;81.70;;;;;;4928178;29;20061;-78
2023/10/18 09:06:04;;;;;;;;;;;14.00;81.70;;;;;;4928930;29;20367;-74
2023/10/18 09:08:49;;;;;;;;;;;14.10;81.70;;;;;;4927069;29;19911;-75
2023/10/18 09:11:22;;;;;;;;;;;14.10;81.70;;;;;;4929348;29;20375;-71
2023/10/18 09:16:37;;;;;;;;;;;14.20;81.80;;;;;;4926065;29;19962;-77
2023/10/18 09:19:03;;;;;;;;;;;14.20;81.80;;;;;;4922486;29;21204;-77
2023/10/18 09:21:36;;;;;;;;;;;14.20;81.80;;;;;;4922141;29;19970;-77
2023/10/18 09:24:06;;;;;;;;;;;14.30;81.80;;;;;;4929317;29;19930;-74
2023/10/18 09:26:43;;;;;;;;;;;14.30;81.90;;;;;;4928172;29;19914;-74
2023/10/18 09:29:09;;;;;;;;;;;14.40;81.90;;;;;;4930289;29;19990;-75
2023/10/18 09:31:36;;;;;;;;;;;14.40;81.90;;;;;;4929737;29;20007;-77
2023/10/18 09:34:08;;;;;;;;;;;14.40;81.80;;;;;;4931766;29;19970;-77
2023/10/18 09:36:38;;;;;;;;;;;14.40;81.90;;;;;;4930103;29;19915;-77
2023/10/18 09:39:09;;;;;;;;;;;14.50;81.90;;;;;;4931204;29;19930;-78
2023/10/18 09:41:37;;;;;;;;;;;14.50;81.90;;;;;;4928665;29;19915;-77
2023/10/18 09:44:03;;;;;;;;;;;14.50;81.90;;;;;;4929879;29;19965;-83
2023/10/18 09:46:29;;;;;;;;;;;14.50;81.90;;;;;;4916800;29;19918;-77
2023/10/18 09:48:57;;;;;;;;;;;14.60;82.00;;;;;;4931251;29;19918;-78
2023/10/18 09:51:23;;;;;;;;;;;14.60;82.00;;;;;;4923100;29;19915;-77
2023/10/18 09:53:53;;;;;;;;;;;14.60;81.90;;;;;;4911181;29;19926;-76
2023/10/18 09:56:24;;;;;;;;;;;14.70;82.00;;;;;;4913609;29;19915;-77
2023/10/18 09:58:51;;;;;;;;;;;14.70;81.90;;;;;;4915581;29;20001;-76
2023/10/18 10:01:26;;;;;;;;;;;14.70;81.90;;;;;;4925526;29;19922;-76
2023/10/18 10:03:52;;;;;;;;;;;14.70;82.00;;;;;;4925464;29;19911;-77
2023/10/18 10:06:23;;;;;;;;;;;14.70;81.90;;;;;;4933991;29;19918;-73
2023/10/18 10:08:56;;;;;;;;;;;14.70;82.00;;;;;;4924626;29;20403;-77
2023/10/18 10:11:22;;;;;;;;;;;14.70;82.00;;;;;;4920788;29;19969;-77
2023/10/18 10:13:49;;;;;;;;;;;14.70;82.50;;;;;;4926385;29;19929;-75
2023/10/18 10:16:18;;;;;;;;;;;14.70;82.00;;;;;;4938244;29;19923;-77
2023/10/18 10:18:47;;;;;;;;;;;14.80;82.10;;;;;;4937496;29;19915;-73
2023/10/18 10:21:13;;;;;;;;;;;14.80;82.10;;;;;;4937031;29;20359;-75
2023/10/18 10:23:39;;;;;;;;;;;14.80;82.10;;;;;;4935949;29;20016;-78
2023/10/18 10:26:12;;;;;;;;;;;14.80;82.10;;;;;;4934403;29;19914;-73
2023/10/18 10:29:09;;;;;;;;;;;14.80;82.10;;;;;;4933660;29;19930;-76
2023/10/18 10:31:46;;;;;;;;;;;14.90;82.10;;;;;;4933831;29;19917;-76
2023/10/18 10:34:15;;;;;;;;;;;14.90;82.10;;;;;;4933049;29;19915;-72
2023/10/18 10:36:44;;;;;;;;;;;15.00;82.20;;;;;;4933197;29;20298;-73
2023/10/18 10:39:21;;;;;;;;;;;15.00;82.10;;;;;;4932407;29;20378;-72
2023/10/18 10:41:48;;;;;;;;;;;15.00;82.10;;;;;;4933865;29;20312;-76
2023/10/18 10:44:30;;;;;;;;;;;15.10;82.10;;;;;;4932870;29;19911;-71
2023/10/18 10:47:31;;;;;;;;;;;15.10;82.10;;;;;;4932953;29;19919;-72
2023/10/18 10:50:00;;;;;;;;;;;15.10;82.10;;;;;;4919430;29;20339;-77
2023/10/18 10:52:30;;;;;;;;;;;15.20;82.10;;;;;;4932944;29;19911;-72
2023/10/18 10:55:01;;;;;;;;;;;15.20;82.10;;;;;;4932900;29;20240;-73
2023/10/18 10:57:35;;;;;;;;;;;15.20;82.10;;;;;;4932026;29;20311;-72
2023/10/18 11:00:21;;;;;;;;;;;15.30;82.10;;;;;;4933064;29;19966;-74
2023/10/18 11:02:47;;;;;;;;;;;15.30;82.60;;;;;;4932163;29;19914;-73
2023/10/18 11:05:16;;;;;;;;;;;15.40;82.20;;;;;;4932816;29;19926;-72
2023/10/18 11:07:45;;;;;;;;;;;15.40;82.20;;;;;;4927461;29;19934;-72
2023/10/18 11:10:17;;;;;;;;;;;15.50;82.20;;;;;;4918112;29;19998;-73
2023/10/18 11:12:45;;;;;;;;;;;15.50;82.20;;;;;;4930790;29;19942;-72
2023/10/18 11:15:16;;;;;;;;;;;15.50;82.10;;;;;;4931912;29;19915;-72
2023/10/18 11:17:47;;;;;;;;;;;15.60;82.20;;;;;;4931809;29;19911;-72
2023/10/18 11:20:19;;;;;;;;;;;15.60;82.20;;;;;;4926703;29;20332;-73
2023/10/18 11:22:50;;;;;;;;;;;15.70;82.20;;;;;;4927646;29;19978;-76
2023/10/18 11:25:20;;;;;;;;;;;15.70;82.20;;;;;;4912981;29;19920;-74
2023/10/18 11:27:45;;;;;;;;;;;15.80;82.10;;;;;;4912917;29;19918;-72
2023/10/18 11:30:22;;;;;;;;;;;15.80;82.10;;;;;;4917437;29;19919;-73
2023/10/18 11:32:49;;;;;;;;;;;15.90;82.20;;;;;;4912402;29;19954;-73
2023/10/18 11:35:25;;;;;;;;;;;15.90;82.30;;;;;;4927770;29;20010;-73
2023/10/18 11:37:52;;;;;;;;;;;16.00;82.10;;;;;;4912591;29;19911;-77
2023/10/18 11:41:04;;;;;;;;;;;16.10;82.20;;;;;;4913786;29;19993;-77
2023/10/18 11:43:08;;;;;;;;;;;16.10;82.30;;;;;;4909871;29;20284;-79
2023/10/18 11:45:36;;;;;;;;;;;16.20;82.30;;;;;;4928051;29;20006;-78
2023/10/18 11:48:02;;;;;;;;;;;16.30;82.40;;;;;;4932917;29;20255;-78
2023/10/18 11:50:58;;;;;;;;;;;16.30;82.30;;;;;;4933076;29;19914;-76
2023/10/18 11:53:26;;;;;;;;;;;16.40;82.30;;;;;;4928159;29;20330;-76
2023/10/18 11:55:58;;;;;;;;;;;16.40;82.30;;;;;;4932430;29;19915;-79
2023/10/18 11:58:28;;;;;;;;;;;16.40;82.30;;;;;;4932472;29;20394;-77
2023/10/18 12:01:05;;;;;;;;;;;16.50;82.40;;;;;;4932278;29;19923;-78
2023/10/18 12:03:33;;;;;;;;;;;16.60;82.40;;;;;;4932298;29;20290;-79
2023/10/18 12:06:00;;;;;;;;;;;16.60;82.40;;;;;;4931165;29;19982;-78
2023/10/18 12:08:30;;;;;;;;;;;16.70;82.30;;;;;;4932412;29;19937;-76
2023/10/18 12:10:57;;;;;;;;;;;16.70;82.20;;;;;;4931880;29;19911;-80
2023/10/18 12:13:24;;;;;;;;;;;16.70;82.20;;;;;;4932214;29;20271;-76
2023/10/18 12:15:49;;;;;;;;;;;16.70;82.20;;;;;;4932751;29;19914;-77
2023/10/18 12:18:15;;;;;;;;;;;16.60;82.30;;;;;;4932704;29;20002;-69
2023/10/18 12:20:44;;;;;;;;;;;16.70;82.40;;;;;;4932392;29;19911;-77
2023/10/18 12:23:12;;;;;;;;;;;16.60;82.20;;;;;;4928332;29;19918;-75
2023/10/18 12:25:38;;;;;;;;;;;16.60;82.20;;;;;;4931811;29;19915;-76
2023/10/18 12:28:12;;;;;;;;;;;16.50;82.20;;;;;;4931539;29;20278;-75
2023/10/18 12:30:39;;;;;;;;;;;16.40;82.30;;;;;;4931780;29;20307;-72
2023/10/18 12:33:14;;;;;;;;;;;16.30;82.40;;;;;;4930762;29;19942;-71
2023/10/18 12:35:40;;;;;;;;;;;16.40;82.50;;;;;;4931584;29;19923;-75
2023/10/18 12:38:14;;;;;;;;;;;16.30;82.40;;;;;;4932144;29;19911;-75
2023/10/18 12:40:54;;;;;;;;;;;16.20;82.50;;;;;;4930275;29;19959;-74
2023/10/18 12:43:21;;;;;;;;;;;16.20;82.60;;;;;;4931159;29;19931;-74
2023/10/18 12:45:50;;;;;;;;;;;16.20;82.60;;;;;;4931463;29;20280;-72
2023/10/18 12:48:21;;;;;;;;;;;16.20;82.60;;;;;;4931117;29;19970;-74
2023/10/18 12:50:50;;;;;;;;;;;16.20;82.70;;;;;;4914007;29;19933;-73
2023/10/18 12:53:17;;;;;;;;;;;16.20;82.60;;;;;;4911582;29;19923;-74
2023/10/18 12:55:44;;;;;;;;;;;16.10;82.60;;;;;;4895620;29;19923;-72
2023/10/18 12:58:10;;;;;;;;;;;16.10;82.70;;;;;;4912576;29;19985;-73
2023/10/18 13:00:44;;;;;;;;;;;16.00;82.70;;;;;;4926826;29;20651;-72
2023/10/18 13:05:43;;;;;;;;;;;15.90;82.80;;;;;;4912336;29;19971;-72
2023/10/18 13:08:17;;;;;;;;;;;16.00;82.70;;;;;;4912143;29;20011;-72
2023/10/18 13:10:48;;;;;;;;;;;16.00;82.80;;;;;;4912033;29;19919;-73
2023/10/18 13:13:16;;;;;;;;;;;16.00;82.70;;;;;;4912137;29;19963;-71
2023/10/18 13:15:47;;;;;;;;;;;15.90;82.60;;;;;;4911816;29;20495;-71
2023/10/18 13:18:14;;;;;;;;;;;15.90;82.70;;;;;;4912005;29;20351;-73
2023/10/18 13:20:43;;;;;;;;;;;15.90;82.60;;;;;;4926473;29;19941;-72
2023/10/18 13:23:09;;;;;;;;;;;15.90;82.70;;;;;;4912157;29;20368;-72
2023/10/18 13:25:37;;;;;;;;;;;15.90;82.70;;;;;;4912163;29;19922;-72
2023/10/18 13:28:06;;;;;;;;;;;15.90;82.70;;;;;;4918336;29;19946;-72
2023/10/18 13:30:32;;;;;;;;;;;15.90;82.80;;;;;;4930383;29;19925;-73
2023/10/18 13:33:01;;;;;;;;;;;15.90;82.70;;;;;;4934764;29;19973;-72
2023/10/18 13:35:28;;;;;;;;;;;15.90;82.70;;;;;;4933093;29;20018;-73
2023/10/18 13:37:55;;;;;;;;;;;15.80;82.60;;;;;;4949082;29;20283;-71
2023/10/18 13:40:20;;;;;;;;;;;15.80;82.80;;;;;;4934490;29;19997;-71
2023/10/18 13:42:46;;;;;;;;;;;15.70;82.70;;;;;;4934464;29;20006;-71
2023/10/18 13:45:14;;;;;;;;;;;15.70;82.70;;;;;;4948985;29;19927;-69
2023/10/18 13:47:40;;;;;;;;;;;15.70;82.80;;;;;;4934170;29;19942;-71
2023/10/18 13:50:17;;;;;;;;;;;15.70;82.70;;;;;;4934371;29;20323;-71
2023/10/18 13:52:44;;;;;;;;;;;15.70;82.80;;;;;;4934020;29;19915;-71
2023/10/18 13:55:10;;;;;;;;;;;15.70;82.70;;;;;;4933743;29;19922;-72
2023/10/18 13:57:35;;;;;;;;;;;15.70;82.70;;;;;;4932226;29;19919;-71
2023/10/18 14:00:06;;;;;;;;;;;15.70;82.70;;;;;;4933376;29;19922;-72
2023/10/18 14:02:38;;;;;;;;;;;15.70;82.70;;;;;;4932268;29;20504;-69
2023/10/18 14:05:07;;;;;;;;;;;15.70;82.70;;;;;;4933228;29;19919;-69
2023/10/18 14:07:35;;;;;;;;;;;15.80;82.80;;;;;;4933057;29;19977;-69
2023/10/18 14:10:19;;;;;;;;;;;15.80;82.70;;;;;;4933246;29;20433;-70
2023/10/18 14:12:49;;;;;;;;;;;15.80;82.70;;;;;;4933094;29;20306;-69
2023/10/18 14:15:19;;;;;;;;;;;15.80;82.60;;;;;;4932449;29;19937;-69
2023/10/18 14:17:52;;;;;;;;;;;15.80;82.60;;;;;;4933216;29;19950;-70
2023/10/18 14:20:24;;;;;;;;;;;15.80;82.60;;;;;;4933470;29;20359;-69
2023/10/18 14:22:55;;;;;;;;;;;15.80;82.60;;;;;;4933242;29;20387;-70
2023/10/18 14:25:21;;;;;;;;;;;15.70;82.60;;;;;;4933298;29;20315;-69
2023/10/18 14:27:46;;;;;;;;;;;15.80;82.70;;;;;;4931613;29;20015;-70
2023/10/18 14:30:12;;;;;;;;;;;15.70;82.60;;;;;;4932875;29;20359;-69
2023/10/18 14:32:47;;;;;;;;;;;15.80;82.60;;;;;;4947420;29;19915;-69
2023/10/18 14:35:13;;;;;;;;;;;15.80;82.60;;;;;;4933322;29;19935;-70
2023/10/18 14:37:42;;;;;;;;;;;15.70;82.60;;;;;;4933270;29;19919;-70
2023/10/18 14:40:08;;;;;;;;;;;15.70;82.70;;;;;;4933387;29;20456;-70
2023/10/18 14:42:34;;;;;;;;;;;15.70;82.60;;;;;;4931627;29;19997;-69
2023/10/18 14:45:00;;;;;;;;;;;15.70;82.60;;;;;;4932957;29;19961;-67
2023/10/18 14:47:25;;;;;;;;;;;15.80;82.60;;;;;;4932467;29;19915;-70
2023/10/18 14:49:51;;;;;;;;;;;15.80;82.60;;;;;;4932446;29;20620;-70
2023/10/18 14:52:19;;;;;;;;;;;15.80;82.60;;;;;;4947140;29;20247;-70
2023/10/18 14:54:49;;;;;;;;;;;15.80;82.60;;;;;;4932877;29;20557;-70
2023/10/18 14:57:19;;;;;;;;;;;15.80;82.60;;;;;;4932711;29;19911;-67
2023/10/18 14:59:46;;;;;;;;;;;15.80;82.60;;;;;;4931368;29;20345;-69
2023/10/18 15:02:13;;;;;;;;;;;15.80;83.10;;;;;;4932694;29;19935;-70
2023/10/18 15:04:41;;;;;;;;;;;15.80;82.60;;;;;;4932390;29;19922;-69
2023/10/18 15:07:06;;;;;;;;;;;15.80;82.60;;;;;;4930865;29;19915;-70